Time;durP1;ratioP1;P1;durP2;ratioP2;P2;SDS_P1;SDS_P2;PMS_P1;PMS_P2;Temp;Humidity;BMP_temperature;BMP_pressure;BME280_temperature;BME280_humidity;BME280_pressure;Samples;Min_cycle;Max_cycle;Signal;HPM_P1;HPM_P2
2023/08/23 00:00:14;;;;;;;0.70;0.70;;;;;;;;;;5064047;28;20058;-64
2023/08/23 00:02:41;;;;;;;1.00;0.90;;;;;;;;;;5065089;28;20040;-64
2023/08/23 00:05:07;;;;;;;0.90;0.90;;;;;;;;;;5064842;28;20052;-64
2023/08/23 00:07:33;;;;;;;0.80;0.80;;;;;;;;;;5064278;28;20045;-64
2023/08/23 00:09:59;;;;;;;2.35;0.80;;;;;;;;;;5063791;28;20045;-64
2023/08/23 00:12:25;;;;;;;1.15;0.80;;;;;;;;;;5064350;28;20048;-64
2023/08/23 00:14:51;;;;;;;0.88;0.77;;;;;;;;;;5064087;28;20048;-63
2023/08/23 00:17:17;;;;;;;0.80;0.80;;;;;;;;;;5064305;28;20047;-64
2023/08/23 00:19:43;;;;;;;0.80;0.80;;;;;;;;;;5064235;28;20451;-64
2023/08/23 00:22:09;;;;;;;0.77;0.77;;;;;;;;;;5064050;28;20751;-64
2023/08/23 00:24:35;;;;;;;0.90;0.90;;;;;;;;;;5064516;28;20040;-64
2023/08/23 00:27:01;;;;;;;1.02;0.90;;;;;;;;;;5064701;28;20052;-64
2023/08/23 00:29:27;;;;;;;1.05;0.95;;;;;;;;;;5062929;28;20044;-64
2023/08/23 00:31:53;;;;;;;0.80;0.60;;;;;;;;;;5064536;28;20045;-64
2023/08/23 00:34:19;;;;;;;1.10;1.05;;;;;;;;;;5063279;28;20492;-64
2023/08/23 00:36:46;;;;;;;0.80;0.80;;;;;;;;;;5064764;28;20041;-63
2023/08/23 00:39:12;;;;;;;1.00;0.85;;;;;;;;;;5064106;28;20079;-63
2023/08/23 00:41:38;;;;;;;0.60;0.60;;;;;;;;;;5063865;28;20412;-63
2023/08/23 00:44:04;;;;;;;0.50;0.50;;;;;;;;;;5064029;28;20480;-63
2023/08/23 00:46:30;;;;;;;0.60;0.60;;;;;;;;;;5064494;28;20040;-63
2023/08/23 00:48:57;;;;;;;1.42;0.93;;;;;;;;;;5063986;28;20059;-63
2023/08/23 00:51:23;;;;;;;0.63;0.63;;;;;;;;;;5064398;28;20121;-63
2023/08/23 00:53:49;;;;;;;0.43;0.43;;;;;;;;;;5064291;28;20469;-64
2023/08/23 00:56:16;;;;;;;0.47;0.47;;;;;;;;;;5063805;28;20052;-64
2023/08/23 00:58:42;;;;;;;0.47;0.47;;;;;;;;;;5064302;28;20051;-64
2023/08/23 01:01:08;;;;;;;0.63;0.63;;;;;;;;;;5063896;28;20048;-64
2023/08/23 01:03:34;;;;;;;0.30;0.30;;;;;;;;;;5063389;28;20052;-64
2023/08/23 01:06:09;;;;;;;0.82;0.50;;;;;;;;;;5064421;28;20720;-64
2023/08/23 01:08:42;;;;;;;0.50;0.50;;;;;;;;;;5064053;28;20515;-64
2023/08/23 01:11:13;;;;;;;0.73;0.73;;;;;;;;;;5063242;28;20637;-64
2023/08/23 01:13:50;;;;;;;0.70;0.70;;;;;;;;;;5064222;28;20037;-63
2023/08/23 01:16:18;;;;;;;0.85;0.75;;;;;;;;;;5063885;28;20052;-63
2023/08/23 01:18:45;;;;;;;0.70;0.70;;;;;;;;;;5063979;28;20072;-63
2023/08/23 01:21:12;;;;;;;0.57;0.57;;;;;;;;;;5063452;28;20052;-63
2023/08/23 01:23:38;;;;;;;0.70;0.70;;;;;;;;;;5054837;28;20067;-63
2023/08/23 01:26:04;;;;;;;0.80;0.80;;;;;;;;;;5062435;28;20512;-63
2023/08/23 01:28:31;;;;;;;0.90;0.90;;;;;;;;;;5064011;28;20040;-63
2023/08/23 01:30:59;;;;;;;0.90;0.90;;;;;;;;;;5063636;28;20072;-63
2023/08/23 01:33:38;;;;;;;0.90;0.80;;;;;;;;;;5063723;28;20082;-63
2023/08/23 01:36:22;;;;;;;1.13;1.02;;;;;;;;;;5062068;28;20053;-63
2023/08/23 01:38:49;;;;;;;1.27;1.17;;;;;;;;;;5066910;28;20050;-63
2023/08/23 01:41:16;;;;;;;1.10;1.00;;;;;;;;;;5067809;28;20101;-63
2023/08/23 01:43:43;;;;;;;0.80;0.80;;;;;;;;;;5067736;28;20050;-63
2023/08/23 01:46:09;;;;;;;1.38;1.20;;;;;;;;;;5066812;28;20032;-63
2023/08/23 01:48:35;;;;;;;1.02;0.90;;;;;;;;;;5067668;28;20614;-63
2023/08/23 01:51:01;;;;;;;0.85;0.85;;;;;;;;;;5067809;28;20072;-63
2023/08/23 01:53:27;;;;;;;0.93;0.90;;;;;;;;;;5066972;28;20045;-63
2023/08/23 01:55:53;;;;;;;0.88;0.80;;;;;;;;;;5067180;28;20060;-63
2023/08/23 01:58:19;;;;;;;0.70;0.70;;;;;;;;;;5067212;28;20036;-64
2023/08/23 02:00:48;;;;;;;0.70;0.70;;;;;;;;;;5067058;28;20040;-64
2023/08/23 02:03:15;;;;;;;0.90;0.90;;;;;;;;;;5066979;28;20040;-64
2023/08/23 02:05:41;;;;;;;0.65;0.65;;;;;;;;;;5066515;28;20041;-63
2023/08/23 02:08:07;;;;;;;0.93;0.90;;;;;;;;;;5066564;28;20048;-64
2023/08/23 02:10:33;;;;;;;0.50;0.50;;;;;;;;;;5067116;28;20040;-64
2023/08/23 02:12:59;;;;;;;0.70;0.70;;;;;;;;;;5067256;28;20046;-64
2023/08/23 02:15:25;;;;;;;0.80;0.80;;;;;;;;;;5066221;28;20042;-64
2023/08/23 02:17:52;;;;;;;0.75;0.75;;;;;;;;;;5066830;28;20279;-64
2023/08/23 02:20:18;;;;;;;0.80;0.80;;;;;;;;;;5065754;28;20040;-64
2023/08/23 02:22:44;;;;;;;1.00;1.00;;;;;;;;;;5066488;28;20040;-63
2023/08/23 02:25:10;;;;;;;0.60;0.60;;;;;;;;;;5066633;28;20049;-63
2023/08/23 02:27:36;;;;;;;0.77;0.77;;;;;;;;;;5066687;28;20500;-63
2023/08/23 02:30:02;;;;;;;0.68;0.65;;;;;;;;;;5066682;28;20127;-63
2023/08/23 02:32:28;;;;;;;0.50;0.50;;;;;;;;;;5067023;28;20382;-64
2023/08/23 02:34:54;;;;;;;0.70;0.70;;;;;;;;;;5065761;28;20051;-64
2023/08/23 02:37:20;;;;;;;0.73;0.70;;;;;;;;;;5066004;28;20048;-63
2023/08/23 02:39:46;;;;;;;0.50;0.50;;;;;;;;;;5066413;28;20043;-63
2023/08/23 02:42:12;;;;;;;0.60;0.60;;;;;;;;;;5065450;28;20040;-63
2023/08/23 02:44:38;;;;;;;0.60;0.60;;;;;;;;;;5066281;28;20468;-63
2023/08/23 02:47:05;;;;;;;0.68;0.68;;;;;;;;;;5066329;28;20057;-63
2023/08/23 02:49:31;;;;;;;0.82;0.82;;;;;;;;;;5065816;28;20036;-63
2023/08/23 02:51:57;;;;;;;0.60;0.60;;;;;;;;;;5066806;28;20468;-63
2023/08/23 02:54:23;;;;;;;0.70;0.70;;;;;;;;;;5066175;28;20065;-63
2023/08/23 02:56:49;;;;;;;0.60;0.60;;;;;;;;;;5065548;28;20136;-64
2023/08/23 02:59:15;;;;;;;0.50;0.50;;;;;;;;;;5065669;28;20068;-64
2023/08/23 03:01:41;;;;;;;0.60;0.60;;;;;;;;;;5066037;28;20366;-64
2023/08/23 03:04:07;;;;;;;0.60;0.60;;;;;;;;;;5065163;28;20622;-64
2023/08/23 03:06:33;;;;;;;0.40;0.40;;;;;;;;;;5066482;28;20043;-63
2023/08/23 03:08:59;;;;;;;0.57;0.57;;;;;;;;;;5066052;28;20127;-63
2023/08/23 03:11:25;;;;;;;0.60;0.60;;;;;;;;;;5065492;28;20116;-63
2023/08/23 03:13:51;;;;;;;0.35;0.35;;;;;;;;;;5065673;28;20590;-63
2023/08/23 03:16:18;;;;;;;0.50;0.50;;;;;;;;;;5065108;28;20420;-63
2023/08/23 03:18:44;;;;;;;0.50;0.50;;;;;;;;;;5065983;28;20041;-63
2023/08/23 03:21:10;;;;;;;1.13;0.80;;;;;;;;;;5065470;28;20423;-63
2023/08/23 03:23:36;;;;;;;0.50;0.50;;;;;;;;;;5063403;28;20036;-63
2023/08/23 03:26:02;;;;;;;0.40;0.40;;;;;;;;;;5063935;28;20044;-63
2023/08/23 03:28:28;;;;;;;0.55;0.55;;;;;;;;;;5065710;28;20049;-63
2023/08/23 03:30:54;;;;;;;0.50;0.50;;;;;;;;;;5064540;28;20055;-63
2023/08/23 03:33:20;;;;;;;0.60;0.60;;;;;;;;;;5064734;28;20047;-64
2023/08/23 03:35:52;;;;;;;0.50;0.50;;;;;;;;;;5065158;28;20381;-63
2023/08/23 03:38:18;;;;;;;1.77;0.70;;;;;;;;;;5064307;28;20473;-63
2023/08/23 03:40:44;;;;;;;0.68;0.68;;;;;;;;;;5064946;28;20197;-63
2023/08/23 03:43:10;;;;;;;0.63;0.60;;;;;;;;;;5065470;28;20049;-63
2023/08/23 03:45:36;;;;;;;0.57;0.57;;;;;;;;;;5064814;28;20488;-63
2023/08/23 03:48:02;;;;;;;0.50;0.50;;;;;;;;;;5064939;28;20044;-63
2023/08/23 03:50:28;;;;;;;0.40;0.40;;;;;;;;;;5065712;28;20063;-63
2023/08/23 03:52:54;;;;;;;0.50;0.50;;;;;;;;;;5064320;28;20079;-63
2023/08/23 03:55:20;;;;;;;0.50;0.50;;;;;;;;;;5064084;28;20560;-63
2023/08/23 03:57:46;;;;;;;0.40;0.40;;;;;;;;;;5063121;28;20055;-63
2023/08/23 04:00:13;;;;;;;0.30;0.30;;;;;;;;;;5063035;28;20862;-63
2023/08/23 04:02:42;;;;;;;0.45;0.45;;;;;;;;;;5064812;28;20508;-63
2023/08/23 04:05:11;;;;;;;0.50;0.50;;;;;;;;;;5063695;28;20091;-63
2023/08/23 04:07:38;;;;;;;0.60;0.60;;;;;;;;;;5064590;28;20500;-63
2023/08/23 04:10:04;;;;;;;1.60;0.57;;;;;;;;;;5064974;28;20086;-63
2023/08/23 04:12:30;;;;;;;1.23;1.17;;;;;;;;;;5064519;28;20819;-63
2023/08/23 04:14:56;;;;;;;2.10;1.13;;;;;;;;;;5063572;28;20098;-63
2023/08/23 04:17:23;;;;;;;1.10;1.00;;;;;;;;;;5063953;28;20048;-63
2023/08/23 04:19:50;;;;;;;0.93;0.93;;;;;;;;;;5064094;28;20055;-63
2023/08/23 04:22:16;;;;;;;1.30;1.10;;;;;;;;;;5062506;28;20045;-63
2023/08/23 04:24:42;;;;;;;1.30;1.20;;;;;;;;;;5064263;28;20036;-63
2023/08/23 04:27:08;;;;;;;1.25;1.15;;;;;;;;;;5063570;28;20554;-63
2023/08/23 04:29:34;;;;;;;0.77;0.77;;;;;;;;;;5064280;28;20053;-63
2023/08/23 04:32:00;;;;;;;1.00;0.73;;;;;;;;;;5064874;28;20040;-63
2023/08/23 04:34:26;;;;;;;0.82;0.80;;;;;;;;;;5064035;28;20102;-63
2023/08/23 04:36:52;;;;;;;0.55;0.55;;;;;;;;;;5064152;28;20708;-63
2023/08/23 04:39:18;;;;;;;0.73;0.73;;;;;;;;;;5063854;28;20389;-63
2023/08/23 04:41:44;;;;;;;0.73;0.73;;;;;;;;;;5063484;28;20032;-63
2023/08/23 04:44:10;;;;;;;0.60;0.60;;;;;;;;;;5063784;28;20078;-63
2023/08/23 04:46:36;;;;;;;0.70;0.70;;;;;;;;;;5064295;28;20427;-63
2023/08/23 04:49:02;;;;;;;1.30;1.20;;;;;;;;;;5061812;28;20051;-63
2023/08/23 04:51:28;;;;;;;1.30;1.20;;;;;;;;;;5064559;28;20468;-63
2023/08/23 04:53:54;;;;;;;1.80;1.63;;;;;;;;;;5064002;28;20036;-63
2023/08/23 04:56:20;;;;;;;1.33;1.10;;;;;;;;;;5061764;28;20620;-63
2023/08/23 04:58:47;;;;;;;1.27;1.17;;;;;;;;;;5064062;28;20047;-63
2023/08/23 05:01:13;;;;;;;1.38;1.27;;;;;;;;;;5063888;28;20068;-64
2023/08/23 05:03:39;;;;;;;0.98;0.98;;;;;;;;;;5063611;28;20032;-64
2023/08/23 05:06:05;;;;;;;1.77;1.55;;;;;;;;;;5063774;28;20529;-63
2023/08/23 05:08:33;;;;;;;1.75;1.65;;;;;;;;;;5063802;28;20037;-63
2023/08/23 05:10:59;;;;;;;1.58;1.48;;;;;;;;;;5065091;28;20101;-63
2023/08/23 05:13:26;;;;;;;1.85;1.75;;;;;;;;;;5068078;28;20393;-64
2023/08/23 05:15:52;;;;;;;1.75;1.65;;;;;;;;;;5067480;28;20066;-64
2023/08/23 05:18:19;;;;;;;1.65;1.40;;;;;;;;;;5067993;28;20079;-64
2023/08/23 05:20:45;;;;;;;1.83;1.73;;;;;;;;;;5067930;28;20040;-63
2023/08/23 05:23:11;;;;;;;1.95;1.80;;;;;;;;;;5067116;28;20162;-63
2023/08/23 05:25:37;;;;;;;1.55;1.45;;;;;;;;;;5067681;28;20420;-63
2023/08/23 05:28:03;;;;;;;1.58;1.48;;;;;;;;;;5067172;28;20056;-63
2023/08/23 05:30:30;;;;;;;1.80;1.70;;;;;;;;;;5067279;28;20072;-63
2023/08/23 05:32:56;;;;;;;1.73;1.63;;;;;;;;;;5067826;28;20588;-63
2023/08/23 05:35:22;;;;;;;1.40;1.30;;;;;;;;;;5067404;28;20131;-63
2023/08/23 05:37:48;;;;;;;1.52;1.40;;;;;;;;;;5066824;28;20111;-63
2023/08/23 05:40:14;;;;;;;1.60;1.50;;;;;;;;;;5067094;28;20090;-63
2023/08/23 05:42:40;;;;;;;1.50;1.40;;;;;;;;;;5067185;28;20095;-63
2023/08/23 05:45:06;;;;;;;1.30;1.20;;;;;;;;;;5066567;28;20509;-63
2023/08/23 05:47:33;;;;;;;1.13;1.02;;;;;;;;;;5067515;28;20040;-63
2023/08/23 05:49:59;;;;;;;1.60;1.48;;;;;;;;;;5068271;28;20037;-64
2023/08/23 05:52:25;;;;;;;2.35;2.03;;;;;;;;;;5066719;28;20048;-64
2023/08/23 05:54:51;;;;;;;2.22;2.05;;;;;;;;;;5067044;28;20052;-64
2023/08/23 05:57:17;;;;;;;2.75;2.50;;;;;;;;;;5066545;28;20696;-64
2023/08/23 05:59:43;;;;;;;2.10;2.00;;;;;;;;;;5066368;28;20094;-63
2023/08/23 06:02:09;;;;;;;2.05;1.90;;;;;;;;;;5066840;28;20044;-63
2023/08/23 06:04:35;;;;;;;2.65;2.45;;;;;;;;;;5066958;28;20106;-64
2023/08/23 06:07:03;;;;;;;2.55;2.28;;;;;;;;;;5066439;28;20044;-64
2023/08/23 06:09:29;;;;;;;3.08;2.88;;;;;;;;;;5067655;28;20500;-63
2023/08/23 06:11:55;;;;;;;2.60;2.38;;;;;;;;;;5066644;28;20404;-63
2023/08/23 06:14:24;;;;;;;3.03;2.83;;;;;;;;;;5066938;28;20572;-63
2023/08/23 06:16:50;;;;;;;3.30;2.88;;;;;;;;;;5066841;28;20040;-63
2023/08/23 06:19:16;;;;;;;3.30;3.10;;;;;;;;;;5065835;28;20040;-63
2023/08/23 06:21:43;;;;;;;3.40;3.10;;;;;;;;;;5066743;28;20792;-63
2023/08/23 06:24:09;;;;;;;3.03;2.83;;;;;;;;;;5065628;28;20123;-64
2023/08/23 06:26:35;;;;;;;3.53;3.03;;;;;;;;;;5066345;28;20466;-63
2023/08/23 06:29:01;;;;;;;4.28;3.97;;;;;;;;;;5066781;28;20386;-63
2023/08/23 06:31:27;;;;;;;3.92;3.55;;;;;;;;;;5066943;28;20040;-63
2023/08/23 06:33:53;;;;;;;3.60;3.30;;;;;;;;;;5065818;28;20079;-64
2023/08/23 06:36:19;;;;;;;2.65;2.45;;;;;;;;;;5066012;28;20072;-64
2023/08/23 06:38:45;;;;;;;2.92;2.67;;;;;;;;;;5066712;28;20041;-64
2023/08/23 06:41:11;;;;;;;3.03;2.72;;;;;;;;;;5065651;28;20040;-64
2023/08/23 06:43:37;;;;;;;3.35;3.05;;;;;;;;;;5066152;28;20048;-64
2023/08/23 06:46:03;;;;;;;3.40;3.10;;;;;;;;;;5066106;28;20296;-64
2023/08/23 06:48:29;;;;;;;4.40;4.00;;;;;;;;;;5065845;28;20043;-64
2023/08/23 06:50:55;;;;;;;5.05;4.65;;;;;;;;;;5066122;28;20460;-64
2023/08/23 06:53:22;;;;;;;3.15;2.95;;;;;;;;;;5065789;28;20139;-64
2023/08/23 06:55:48;;;;;;;2.78;2.05;;;;;;;;;;5065512;28;20144;-63
2023/08/23 06:58:15;;;;;;;2.53;2.33;;;;;;;;;;5057585;28;20115;-63
2023/08/23 07:00:42;;;;;;;2.22;2.03;;;;;;;;;;5065994;28;20040;-64
2023/08/23 07:03:09;;;;;;;1.88;1.67;;;;;;;;;;5065146;28;20072;-64
2023/08/23 07:05:35;;;;;;;2.53;2.33;;;;;;;;;;5065898;28;20097;-64
2023/08/23 07:08:02;;;;;;;2.40;1.98;;;;;;;;;;5065263;28;20040;-64
2023/08/23 07:10:28;;;;;;;2.50;2.30;;;;;;;;;;5066334;28;20041;-64
2023/08/23 07:12:54;;;;;;;3.22;3.00;;;;;;;;;;5065615;28;20127;-64
2023/08/23 07:15:20;;;;;;;4.78;4.38;;;;;;;;;;5065318;28;20135;-64
2023/08/23 07:17:46;;;;;;;6.45;5.68;;;;;;;;;;5066099;28;20040;-64
2023/08/23 07:20:13;;;;;;;3.90;3.60;;;;;;;;;;5065363;28;20075;-64
2023/08/23 07:22:40;;;;;;;5.00;4.60;;;;;;;;;;5065016;28;20071;-64
2023/08/23 07:25:06;;;;;;;4.00;3.70;;;;;;;;;;5065509;28;20044;-64
2023/08/23 07:27:32;;;;;;;3.50;3.20;;;;;;;;;;5065300;28;20062;-64
2023/08/23 07:29:59;;;;;;;4.47;4.10;;;;;;;;;;5065181;28;20044;-64
2023/08/23 07:32:30;;;;;;;2.55;2.35;;;;;;;;;;5065184;28;20048;-64
2023/08/23 07:34:56;;;;;;;5.20;4.80;;;;;;;;;;5064291;28;20044;-64
2023/08/23 07:37:22;;;;;;;5.57;3.40;;;;;;;;;;5064373;28;20347;-64
2023/08/23 07:39:48;;;;;;;3.38;3.15;;;;;;;;;;5065400;28;20603;-64
2023/08/23 07:42:15;;;;;;;2.65;2.45;;;;;;;;;;5065042;28;20459;-64
2023/08/23 07:44:41;;;;;;;2.03;1.92;;;;;;;;;;5064736;28;20047;-64
2023/08/23 07:47:07;;;;;;;3.40;3.10;;;;;;;;;;5065011;28;20048;-64
2023/08/23 07:49:33;;;;;;;5.15;4.72;;;;;;;;;;5064909;28;20047;-64
2023/08/23 07:51:59;;;;;;;4.93;4.15;;;;;;;;;;5064842;28;20096;-64
2023/08/23 07:54:25;;;;;;;5.65;5.15;;;;;;;;;;5064493;28;20620;-64
2023/08/23 07:56:51;;;;;;;4.38;3.97;;;;;;;;;;5064782;28;20377;-64
2023/08/23 07:59:17;;;;;;;4.28;3.50;;;;;;;;;;5063936;28;20075;-64
2023/08/23 08:01:43;;;;;;;2.67;2.47;;;;;;;;;;5064610;28;20120;-64
2023/08/23 08:04:09;;;;;;;2.78;2.58;;;;;;;;;;5064211;28;20123;-64
2023/08/23 08:06:35;;;;;;;3.08;2.88;;;;;;;;;;5064156;28;20040;-64
2023/08/23 08:09:01;;;;;;;3.38;3.17;;;;;;;;;;5065569;28;20378;-64
2023/08/23 08:11:27;;;;;;;3.67;3.38;;;;;;;;;;5064973;28;20044;-64
2023/08/23 08:13:53;;;;;;;3.40;2.80;;;;;;;;;;5064897;28;20070;-64
2023/08/23 08:16:19;;;;;;;3.53;3.22;;;;;;;;;;5064003;28;20041;-64
2023/08/23 08:18:45;;;;;;;4.70;4.18;;;;;;;;;;5063798;28;20029;-64
2023/08/23 08:21:11;;;;;;;5.10;4.60;;;;;;;;;;5064396;28;20040;-63
2023/08/23 08:23:37;;;;;;;6.35;4.68;;;;;;;;;;5064216;28;20072;-63
2023/08/23 08:26:05;;;;;;;5.60;5.03;;;;;;;;;;5063449;28;20135;-63
2023/08/23 08:28:31;;;;;;;10.35;7.70;;;;;;;;;;5064549;28;20450;-63
2023/08/23 08:30:57;;;;;;;6.78;6.18;;;;;;;;;;5065214;28;20044;-64
2023/08/23 08:33:23;;;;;;;3.75;3.35;;;;;;;;;;5063723;28;20213;-64
2023/08/23 08:35:49;;;;;;;3.78;3.05;;;;;;;;;;5064502;28;20067;-64
2023/08/23 08:38:15;;;;;;;4.25;3.83;;;;;;;;;;5063875;28;20082;-64
2023/08/23 08:40:42;;;;;;;2.67;2.47;;;;;;;;;;5061841;28;20048;-64
2023/08/23 08:43:08;;;;;;;3.35;3.03;;;;;;;;;;5063719;28;20437;-64
2023/08/23 08:45:34;;;;;;;3.85;3.55;;;;;;;;;;5063813;28;20051;-64
2023/08/23 08:48:00;;;;;;;2.88;2.65;;;;;;;;;;5063941;28;20124;-64
2023/08/23 08:50:26;;;;;;;3.42;3.13;;;;;;;;;;5064614;28;20148;-64
2023/08/23 08:52:53;;;;;;;4.50;4.10;;;;;;;;;;5063932;28;20477;-64
2023/08/23 08:55:23;;;;;;;5.00;4.53;;;;;;;;;;5062892;28;20056;-64
2023/08/23 08:57:53;;;;;;;5.57;5.00;;;;;;;;;;5064196;28;20128;-64
2023/08/23 09:00:21;;;;;;;6.18;5.57;;;;;;;;;;5062708;28;20051;-64
2023/08/23 09:02:47;;;;;;;3.17;2.97;;;;;;;;;;5063902;28;20044;-64
2023/08/23 09:05:14;;;;;;;5.93;5.00;;;;;;;;;;5063818;28;20078;-64
2023/08/23 09:07:41;;;;;;;6.10;5.10;;;;;;;;;;5063697;28;20154;-64
2023/08/23 09:10:07;;;;;;;7.25;6.32;;;;;;;;;;5062375;28;20453;-64
2023/08/23 09:12:34;;;;;;;5.25;4.72;;;;;;;;;;5063578;28;20130;-64
2023/08/23 09:15:06;;;;;;;4.15;3.75;;;;;;;;;;5063692;28;20080;-64
2023/08/23 09:17:35;;;;;;;4.88;4.40;;;;;;;;;;5055541;28;20032;-64
2023/08/23 09:20:10;;;;;;;3.55;2.92;;;;;;;;;;5064628;28;20075;-64
2023/08/23 09:22:36;;;;;;;3.47;3.17;;;;;;;;;;5054857;28;20503;-64
2023/08/23 09:25:03;;;;;;;7.20;5.25;;;;;;;;;;5063435;28;20093;-64
2023/08/23 09:27:29;;;;;;;4.70;4.30;;;;;;;;;;5063882;28;20499;-64
2023/08/23 09:29:56;;;;;;;2.58;2.38;;;;;;;;;;5061676;28;20355;-64
2023/08/23 09:32:22;;;;;;;2.35;2.20;;;;;;;;;;5063513;28;20044;-64
2023/08/23 09:34:48;;;;;;;3.88;3.40;;;;;;;;;;5054963;28;20048;-64
2023/08/23 09:37:14;;;;;;;6.18;5.45;;;;;;;;;;5062938;28;20041;-64
2023/08/23 09:39:40;;;;;;;5.10;4.60;;;;;;;;;;5063973;28;20097;-64
2023/08/23 09:42:08;;;;;;;4.85;4.35;;;;;;;;;;5063239;28;20384;-63
2023/08/23 09:44:40;;;;;;;4.40;3.58;;;;;;;;;;5063010;28;20081;-63
2023/08/23 09:47:09;;;;;;;3.35;3.03;;;;;;;;;;5055935;28;20087;-64
2023/08/23 09:49:35;;;;;;;3.03;2.80;;;;;;;;;;5063644;28;20045;-64
2023/08/23 09:52:03;;;;;;;3.17;2.88;;;;;;;;;;5063059;28;20040;-64
2023/08/23 09:54:29;;;;;;;3.95;3.65;;;;;;;;;;5063912;28;20056;-64
2023/08/23 09:56:55;;;;;;;5.15;2.95;;;;;;;;;;5062733;28;20040;-64
2023/08/23 09:59:21;;;;;;;3.17;2.75;;;;;;;;;;5065663;28;21258;-64
2023/08/23 10:01:48;;;;;;;4.65;4.25;;;;;;;;;;5067690;28;20033;-64
2023/08/23 10:04:15;;;;;;;3.72;3.33;;;;;;;;;;5066864;28;20040;-64
2023/08/23 10:06:43;;;;;;;3.67;3.38;;;;;;;;;;5067132;28;20033;-64
2023/08/23 10:09:10;;;;;;;2.80;2.60;;;;;;;;;;5066484;28;20121;-64
2023/08/23 10:11:36;;;;;;;2.67;2.42;;;;;;;;;;5066311;28;20685;-64
2023/08/23 10:14:04;;;;;;;3.75;3.00;;;;;;;;;;5066755;28;20043;-64
2023/08/23 10:16:31;;;;;;;2.42;2.22;;;;;;;;;;5058799;28;20419;-64
2023/08/23 10:18:57;;;;;;;2.42;1.70;;;;;;;;;;5066605;28;20651;-64
2023/08/23 10:21:25;;;;;;;2.28;1.80;;;;;;;;;;5066207;28;20051;-64
2023/08/23 10:23:51;;;;;;;3.65;2.38;;;;;;;;;;5066503;28;20048;-64
2023/08/23 10:26:19;;;;;;;2.85;2.40;;;;;;;;;;5065992;28;20048;-64
2023/08/23 10:28:53;;;;;;;2.47;2.30;;;;;;;;;;5067126;28;20048;-64
2023/08/23 10:31:22;;;;;;;5.00;2.63;;;;;;;;;;5067124;28;20056;-64
2023/08/23 10:33:54;;;;;;;2.42;2.22;;;;;;;;;;5057646;28;20078;-64
2023/08/23 10:36:30;;;;;;;3.63;2.63;;;;;;;;;;5065858;28;20107;-64
2023/08/23 10:38:56;;;;;;;1.88;1.77;;;;;;;;;;5058800;28;20060;-64
2023/08/23 10:41:26;;;;;;;1.67;1.58;;;;;;;;;;5065735;28;20041;-64
2023/08/23 10:43:53;;;;;;;1.27;1.17;;;;;;;;;;5066411;28;20076;-64
2023/08/23 10:46:19;;;;;;;1.88;1.77;;;;;;;;;;5065636;28;20110;-64
2023/08/23 10:48:46;;;;;;;1.90;1.70;;;;;;;;;;5066009;28;20037;-64
2023/08/23 10:51:13;;;;;;;3.33;2.30;;;;;;;;;;5066141;28;20036;-64
2023/08/23 10:53:40;;;;;;;1.70;1.58;;;;;;;;;;5065976;28;20043;-64
2023/08/23 10:56:07;;;;;;;1.80;1.70;;;;;;;;;;5066121;28;20052;-64
2023/08/23 10:58:33;;;;;;;1.92;1.73;;;;;;;;;;5066028;28;20039;-64
2023/08/23 11:00:59;;;;;;;3.47;2.10;;;;;;;;;;5066096;28;20768;-64
2023/08/23 11:03:28;;;;;;;1.40;1.30;;;;;;;;;;5065972;28;20412;-64
2023/08/23 11:05:54;;;;;;;2.35;2.15;;;;;;;;;;5066112;28;20172;-64
2023/08/23 11:08:21;;;;;;;1.80;1.70;;;;;;;;;;5065150;28;20036;-64
2023/08/23 11:10:47;;;;;;;1.75;1.33;;;;;;;;;;5065551;28;20588;-64
2023/08/23 11:13:13;;;;;;;4.00;2.05;;;;;;;;;;5065459;28;20040;-64
2023/08/23 11:15:41;;;;;;;2.00;1.70;;;;;;;;;;5064996;28;20513;-64
2023/08/23 11:18:07;;;;;;;2.33;1.50;;;;;;;;;;5065096;28;20123;-64
2023/08/23 11:20:33;;;;;;;2.53;1.58;;;;;;;;;;5065602;28;20084;-64
2023/08/23 11:22:59;;;;;;;2.08;1.17;;;;;;;;;;5066284;28;20051;-64
2023/08/23 11:25:25;;;;;;;2.40;1.80;;;;;;;;;;5065365;28;20128;-64
2023/08/23 11:27:52;;;;;;;2.67;1.65;;;;;;;;;;5065322;28;20204;-64
2023/08/23 11:30:20;;;;;;;2.35;1.30;;;;;;;;;;5064956;28;20048;-64
2023/08/23 11:32:47;;;;;;;1.77;1.13;;;;;;;;;;5065882;28;20040;-64
2023/08/23 11:35:13;;;;;;;1.58;1.00;;;;;;;;;;5064867;28;20102;-64
2023/08/23 11:37:39;;;;;;;0.88;0.85;;;;;;;;;;5065150;28;20524;-64
2023/08/23 11:40:10;;;;;;;1.08;0.80;;;;;;;;;;5065207;28;20045;-64
2023/08/23 11:42:37;;;;;;;1.50;0.90;;;;;;;;;;5064384;28;20332;-64
2023/08/23 11:45:07;;;;;;;0.85;0.85;;;;;;;;;;5064698;28;20044;-64
2023/08/23 11:47:33;;;;;;;1.67;0.90;;;;;;;;;;5065326;28;20051;-64
2023/08/23 11:49:59;;;;;;;1.65;1.08;;;;;;;;;;5065157;28;20047;-64
2023/08/23 11:52:29;;;;;;;0.95;0.60;;;;;;;;;;5065169;28;20154;-64
2023/08/23 11:54:55;;;;;;;0.85;0.68;;;;;;;;;;5063268;28;20053;-64
2023/08/23 11:57:21;;;;;;;1.45;0.85;;;;;;;;;;5064144;28;20048;-64
2023/08/23 11:59:47;;;;;;;1.83;1.10;;;;;;;;;;5065190;28;20063;-64
2023/08/23 12:02:14;;;;;;;0.60;0.57;;;;;;;;;;5065056;28;20044;-64
2023/08/23 12:04:41;;;;;;;0.70;0.50;;;;;;;;;;5064262;28;20129;-64
2023/08/23 12:07:07;;;;;;;1.02;0.70;;;;;;;;;;5064532;28;20097;-64
2023/08/23 12:09:33;;;;;;;1.15;0.60;;;;;;;;;;5064452;28;20044;-64
2023/08/23 12:11:59;;;;;;;0.90;0.63;;;;;;;;;;5064585;28;20572;-64
2023/08/23 12:14:28;;;;;;;0.60;0.43;;;;;;;;;;5064500;28;20552;-64
2023/08/23 12:16:54;;;;;;;0.73;0.40;;;;;;;;;;5064921;28;20048;-65
2023/08/23 12:19:20;;;;;;;0.90;0.60;;;;;;;;;;5063681;28;20037;-64
2023/08/23 12:21:46;;;;;;;0.88;0.60;;;;;;;;;;5064087;28;20040;-64
2023/08/23 12:24:12;;;;;;;0.45;0.43;;;;;;;;;;5064701;28;20086;-64
2023/08/23 12:26:38;;;;;;;0.50;0.50;;;;;;;;;;5063307;28;20105;-64
2023/08/23 12:29:05;;;;;;;0.88;0.60;;;;;;;;;;5064525;28;20044;-64
2023/08/23 12:31:31;;;;;;;0.80;0.45;;;;;;;;;;5064849;28;20036;-64
2023/08/23 12:33:57;;;;;;;1.33;0.75;;;;;;;;;;5064766;28;20044;-64
2023/08/23 12:36:24;;;;;;;1.38;0.73;;;;;;;;;;5064011;28;20047;-65
2023/08/23 12:38:50;;;;;;;1.75;0.85;;;;;;;;;;5063579;28;20842;-64
2023/08/23 12:41:16;;;;;;;0.80;0.60;;;;;;;;;;5063691;28;20037;-64
2023/08/23 12:43:42;;;;;;;3.40;0.82;;;;;;;;;;5063859;28;20508;-64
2023/08/23 12:46:08;;;;;;;1.02;0.60;;;;;;;;;;5063360;28;20048;-64
2023/08/23 12:48:34;;;;;;;0.80;0.68;;;;;;;;;;5064013;28;20048;-64
2023/08/23 12:51:01;;;;;;;0.52;0.30;;;;;;;;;;5064525;28;20040;-64
2023/08/23 12:53:27;;;;;;;0.80;0.63;;;;;;;;;;5063691;28;20043;-64
2023/08/23 12:55:53;;;;;;;0.57;0.57;;;;;;;;;;5063715;28;20052;-64
2023/08/23 12:58:19;;;;;;;0.90;0.60;;;;;;;;;;5064143;28;20113;-64
2023/08/23 13:00:46;;;;;;;0.50;0.40;;;;;;;;;;5063352;28;20040;-64
2023/08/23 13:03:12;;;;;;;0.95;0.70;;;;;;;;;;5063752;28;20079;-64
2023/08/23 13:05:38;;;;;;;0.85;0.50;;;;;;;;;;5064176;28;20094;-64
2023/08/23 13:08:04;;;;;;;0.22;0.22;;;;;;;;;;5063199;28;20408;-64
2023/08/23 13:10:31;;;;;;;0.47;0.35;;;;;;;;;;5064415;28;20048;-64
2023/08/23 13:12:57;;;;;;;0.20;0.20;;;;;;;;;;5064844;28;20037;-64
2023/08/23 13:15:23;;;;;;;0.60;0.35;;;;;;;;;;5063483;28;20468;-65
2023/08/23 13:17:49;;;;;;;0.57;0.38;;;;;;;;;;5063754;28;20116;-64
2023/08/23 13:20:15;;;;;;;0.80;0.75;;;;;;;;;;5063515;28;20028;-64
2023/08/23 13:22:41;;;;;;;1.48;0.68;;;;;;;;;;5063267;28;20127;-64
2023/08/23 13:25:07;;;;;;;1.25;0.40;;;;;;;;;;5064119;28;20048;-64
2023/08/23 13:27:33;;;;;;;0.85;0.63;;;;;;;;;;5063784;28;20036;-64
2023/08/23 13:29:59;;;;;;;1.05;0.50;;;;;;;;;;5063975;28;20129;-64
2023/08/23 13:32:26;;;;;;;0.85;0.40;;;;;;;;;;5065102;28;20123;-64
2023/08/23 13:34:52;;;;;;;1.15;0.50;;;;;;;;;;5066945;28;20139;-64
2023/08/23 13:37:18;;;;;;;0.70;0.50;;;;;;;;;;5067314;28;20043;-64
2023/08/23 13:39:44;;;;;;;0.50;0.30;;;;;;;;;;5067422;28;20040;-64
2023/08/23 13:42:10;;;;;;;0.60;0.40;;;;;;;;;;5066896;28;20223;-64
2023/08/23 13:44:36;;;;;;;0.50;0.40;;;;;;;;;;5067373;28;20075;-64
2023/08/23 13:47:02;;;;;;;0.30;0.30;;;;;;;;;;5067614;28;20083;-64
2023/08/23 13:49:28;;;;;;;0.32;0.30;;;;;;;;;;5067530;28;20140;-64
2023/08/23 13:51:54;;;;;;;0.55;0.30;;;;;;;;;;5067533;28;20127;-64
2023/08/23 13:54:20;;;;;;;0.82;0.30;;;;;;;;;;5066636;28;20084;-64
2023/08/23 13:56:46;;;;;;;0.40;0.30;;;;;;;;;;5066583;28;20076;-64
2023/08/23 13:59:12;;;;;;;0.57;0.20;;;;;;;;;;5067259;28;20048;-64
2023/08/23 14:01:38;;;;;;;0.65;0.40;;;;;;;;;;5066883;28;20076;-64
2023/08/23 14:04:04;;;;;;;0.50;0.40;;;;;;;;;;5066531;28;20087;-64
2023/08/23 14:06:30;;;;;;;0.50;0.50;;;;;;;;;;5067821;28;20123;-64
2023/08/23 14:08:56;;;;;;;0.82;0.30;;;;;;;;;;5066145;28;20534;-64
2023/08/23 14:11:22;;;;;;;1.00;0.40;;;;;;;;;;5057751;28;20521;-64
2023/08/23 14:13:48;;;;;;;0.45;0.40;;;;;;;;;;5066879;28;20044;-64
2023/08/23 14:16:14;;;;;;;0.50;0.30;;;;;;;;;;5066416;28;20044;-64
2023/08/23 14:18:40;;;;;;;0.68;0.40;;;;;;;;;;5066200;28;20451;-64
2023/08/23 14:21:08;;;;;;;1.25;0.73;;;;;;;;;;5066619;28;20040;-64
2023/08/23 14:23:35;;;;;;;1.23;0.50;;;;;;;;;;5058206;28;20047;-64
2023/08/23 14:26:03;;;;;;;0.40;0.40;;;;;;;;;;5065855;28;20500;-64
2023/08/23 14:28:30;;;;;;;0.60;0.50;;;;;;;;;;5066980;28;20048;-64
2023/08/23 14:30:56;;;;;;;0.85;0.63;;;;;;;;;;5066962;28;20123;-64
2023/08/23 14:33:22;;;;;;;0.22;0.22;;;;;;;;;;5065762;28;20127;-64
2023/08/23 14:35:48;;;;;;;0.50;0.40;;;;;;;;;;5066481;28;20041;-64
2023/08/23 14:38:14;;;;;;;1.25;0.55;;;;;;;;;;5065725;28;20037;-64